sensor_id;sensor_type;location;lat;lon;timestamp;P1;durP1;ratioP1;P2;durP2;ratioP2
14169;SDS011;63889;50.596;8.690;2024-01-06T00:02:08;4.95;;;1.40;;
14169;SDS011;63889;50.596;8.690;2024-01-06T00:04:33;9.18;;;1.38;;
14169;SDS011;63889;50.596;8.690;2024-01-06T00:06:59;2.20;;;1.38;;
14169;SDS011;63889;50.596;8.690;2024-01-06T00:09:25;4.53;;;0.90;;
14169;SDS011;63889;50.596;8.690;2024-01-06T00:11:50;6.32;;;2.15;;
14169;SDS011;63889;50.596;8.690;2024-01-06T00:14:16;3.33;;;1.40;;
14169;SDS011;63889;50.596;8.690;2024-01-06T00:16:41;6.22;;;1.08;;
14169;SDS011;63889;50.596;8.690;2024-01-06T00:19:07;3.00;;;1.40;;
14169;SDS011;63889;50.596;8.690;2024-01-06T00:21:32;4.32;;;1.20;;
14169;SDS011;63889;50.596;8.690;2024-01-06T00:23:58;6.45;;;1.60;;
14169;SDS011;63889;50.596;8.690;2024-01-06T00:26:23;7.13;;;1.55;;
14169;SDS011;63889;50.596;8.690;2024-01-06T00:28:52;16.65;;;1.30;;
14169;SDS011;63889;50.596;8.690;2024-01-06T00:31:17;3.83;;;1.00;;
14169;SDS011;63889;50.596;8.690;2024-01-06T00:33:43;2.60;;;1.08;;
14169;SDS011;63889;50.596;8.690;2024-01-06T00:36:09;2.53;;;1.27;;
14169;SDS011;63889;50.596;8.690;2024-01-06T00:38:34;4.88;;;1.33;;
14169;SDS011;63889;50.596;8.690;2024-01-06T00:41:00;2.60;;;1.45;;
14169;SDS011;63889;50.596;8.690;2024-01-06T00:43:26;4.05;;;1.23;;
14169;SDS011;63889;50.596;8.690;2024-01-06T00:45:52;1.48;;;0.80;;
14169;SDS011;63889;50.596;8.690;2024-01-06T00:48:17;3.75;;;1.15;;
14169;SDS011;63889;50.596;8.690;2024-01-06T00:50:43;6.93;;;1.83;;
14169;SDS011;63889;50.596;8.690;2024-01-06T00:53:09;4.47;;;1.05;;
14169;SDS011;63889;50.596;8.690;2024-01-06T00:55:34;4.25;;;0.98;;
14169;SDS011;63889;50.596;8.690;2024-01-06T00:58:00;4.32;;;1.40;;
14169;SDS011;63889;50.596;8.690;2024-01-06T01:00:25;5.95;;;1.13;;
14169;SDS011;63889;50.596;8.690;2024-01-06T01:02:52;3.50;;;1.10;;
14169;SDS011;63889;50.596;8.690;2024-01-06T01:05:17;2.95;;;1.38;;
14169;SDS011;63889;50.596;8.690;2024-01-06T01:07:43;2.83;;;1.10;;
14169;SDS011;63889;50.596;8.690;2024-01-06T01:10:09;2.50;;;1.27;;
14169;SDS011;63889;50.596;8.690;2024-01-06T01:12:35;3.03;;;0.85;;
14169;SDS011;63889;50.596;8.690;2024-01-06T01:15:00;6.32;;;1.05;;
14169;SDS011;63889;50.596;8.690;2024-01-06T01:17:26;3.83;;;1.27;;
14169;SDS011;63889;50.596;8.690;2024-01-06T01:19:52;7.07;;;1.15;;
14169;SDS011;63889;50.596;8.690;2024-01-06T01:22:17;5.88;;;1.73;;
14169;SDS011;63889;50.596;8.690;2024-01-06T01:24:43;4.15;;;1.10;;
14169;SDS011;63889;50.596;8.690;2024-01-06T01:27:09;3.58;;;1.52;;
14169;SDS011;63889;50.596;8.690;2024-01-06T01:29:34;2.60;;;1.00;;
14169;SDS011;63889;50.596;8.690;2024-01-06T01:32:00;3.63;;;1.50;;
14169;SDS011;63889;50.596;8.690;2024-01-06T01:34:26;7.43;;;1.73;;
14169;SDS011;63889;50.596;8.690;2024-01-06T01:36:51;5.78;;;1.40;;
14169;SDS011;63889;50.596;8.690;2024-01-06T01:39:17;5.30;;;1.33;;
14169;SDS011;63889;50.596;8.690;2024-01-06T01:41:42;2.72;;;1.52;;
14169;SDS011;63889;50.596;8.690;2024-01-06T01:44:08;1.73;;;1.10;;
14169;SDS011;63889;50.596;8.690;2024-01-06T01:46:33;6.72;;;1.63;;
14169;SDS011;63889;50.596;8.690;2024-01-06T01:49:00;3.17;;;1.17;;
14169;SDS011;63889;50.596;8.690;2024-01-06T01:51:27;4.22;;;1.33;;
14169;SDS011;63889;50.596;8.690;2024-01-06T01:53:55;4.88;;;1.27;;
14169;SDS011;63889;50.596;8.690;2024-01-06T01:56:22;2.72;;;1.05;;
14169;SDS011;63889;50.596;8.690;2024-01-06T01:58:49;2.88;;;1.10;;
14169;SDS011;63889;50.596;8.690;2024-01-06T02:01:15;4.43;;;1.33;;
14169;SDS011;63889;50.596;8.690;2024-01-06T02:03:41;2.35;;;1.00;;
14169;SDS011;63889;50.596;8.690;2024-01-06T02:06:10;4.00;;;1.60;;
14169;SDS011;63889;50.596;8.690;2024-01-06T02:08:36;8.02;;;1.63;;
14169;SDS011;63889;50.596;8.690;2024-01-06T02:11:02;9.52;;;1.33;;
14169;SDS011;63889;50.596;8.690;2024-01-06T02:13:35;4.60;;;1.40;;
14169;SDS011;63889;50.596;8.690;2024-01-06T02:16:02;8.40;;;1.15;;
14169;SDS011;63889;50.596;8.690;2024-01-06T02:18:29;5.03;;;1.40;;
14169;SDS011;63889;50.596;8.690;2024-01-06T02:20:57;3.30;;;0.95;;
14169;SDS011;63889;50.596;8.690;2024-01-06T02:23:24;5.30;;;1.25;;
14169;SDS011;63889;50.596;8.690;2024-01-06T02:25:49;6.13;;;1.20;;
14169;SDS011;63889;50.596;8.690;2024-01-06T02:28:15;3.25;;;1.00;;
14169;SDS011;63889;50.596;8.690;2024-01-06T02:30:40;5.95;;;1.55;;
14169;SDS011;63889;50.596;8.690;2024-01-06T02:33:06;3.47;;;1.33;;
14169;SDS011;63889;50.596;8.690;2024-01-06T02:35:31;2.65;;;0.90;;
14169;SDS011;63889;50.596;8.690;2024-01-06T02:37:57;1.98;;;1.05;;
14169;SDS011;63889;50.596;8.690;2024-01-06T02:40:22;2.92;;;1.52;;
14169;SDS011;63889;50.596;8.690;2024-01-06T02:42:48;1.60;;;1.08;;
14169;SDS011;63889;50.596;8.690;2024-01-06T02:45:13;7.50;;;1.85;;
14169;SDS011;63889;50.596;8.690;2024-01-06T02:47:39;4.32;;;1.20;;
14169;SDS011;63889;50.596;8.690;2024-01-06T02:50:05;4.70;;;1.23;;
14169;SDS011;63889;50.596;8.690;2024-01-06T02:52:31;2.10;;;1.40;;
14169;SDS011;63889;50.596;8.690;2024-01-06T02:54:56;7.90;;;1.27;;
14169;SDS011;63889;50.596;8.690;2024-01-06T02:57:22;5.10;;;1.50;;
14169;SDS011;63889;50.596;8.690;2024-01-06T02:59:47;6.50;;;1.95;;
14169;SDS011;63889;50.596;8.690;2024-01-06T03:02:13;2.95;;;1.50;;
14169;SDS011;63889;50.596;8.690;2024-01-06T03:04:38;2.47;;;1.38;;
14169;SDS011;63889;50.596;8.690;2024-01-06T03:07:04;4.57;;;1.42;;
14169;SDS011;63889;50.596;8.690;2024-01-06T03:09:30;3.67;;;1.48;;
14169;SDS011;63889;50.596;8.690;2024-01-06T03:11:55;5.57;;;1.77;;
14169;SDS011;63889;50.596;8.690;2024-01-06T03:14:21;7.90;;;1.80;;
14169;SDS011;63889;50.596;8.690;2024-01-06T03:16:46;6.57;;;1.80;;
14169;SDS011;63889;50.596;8.690;2024-01-06T03:19:12;5.50;;;1.70;;
14169;SDS011;63889;50.596;8.690;2024-01-06T03:21:37;6.38;;;1.85;;
14169;SDS011;63889;50.596;8.690;2024-01-06T03:24:03;3.70;;;1.45;;
14169;SDS011;63889;50.596;8.690;2024-01-06T03:26:29;5.40;;;1.95;;
14169;SDS011;63889;50.596;8.690;2024-01-06T03:28:55;3.45;;;1.70;;
14169;SDS011;63889;50.596;8.690;2024-01-06T03:31:21;4.57;;;1.50;;
14169;SDS011;63889;50.596;8.690;2024-01-06T03:33:47;2.85;;;1.65;;
14169;SDS011;63889;50.596;8.690;2024-01-06T03:36:13;4.30;;;1.60;;
14169;SDS011;63889;50.596;8.690;2024-01-06T03:38:40;4.10;;;1.83;;
14169;SDS011;63889;50.596;8.690;2024-01-06T03:41:06;8.45;;;1.92;;
14169;SDS011;63889;50.596;8.690;2024-01-06T03:43:32;5.70;;;2.05;;
14169;SDS011;63889;50.596;8.690;2024-01-06T03:45:58;9.25;;;2.30;;
14169;SDS011;63889;50.596;8.690;2024-01-06T03:48:25;3.03;;;1.55;;
14169;SDS011;63889;50.596;8.690;2024-01-06T03:50:52;4.28;;;2.40;;
14169;SDS011;63889;50.596;8.690;2024-01-06T03:53:17;6.40;;;2.30;;
14169;SDS011;63889;50.596;8.690;2024-01-06T03:55:43;10.75;;;2.92;;
14169;SDS011;63889;50.596;8.690;2024-01-06T03:58:08;4.43;;;2.42;;
14169;SDS011;63889;50.596;8.690;2024-01-06T04:00:34;7.68;;;2.45;;
14169;SDS011;63889;50.596;8.690;2024-01-06T04:02:59;10.63;;;2.80;;
14169;SDS011;63889;50.596;8.690;2024-01-06T04:05:25;5.53;;;2.85;;
14169;SDS011;63889;50.596;8.690;2024-01-06T04:07:50;4.00;;;2.33;;
14169;SDS011;63889;50.596;8.690;2024-01-06T04:10:16;5.78;;;2.97;;
14169;SDS011;63889;50.596;8.690;2024-01-06T04:12:41;10.23;;;3.17;;
14169;SDS011;63889;50.596;8.690;2024-01-06T04:15:07;8.25;;;2.80;;
14169;SDS011;63889;50.596;8.690;2024-01-06T04:17:33;6.72;;;2.88;;
14169;SDS011;63889;50.596;8.690;2024-01-06T04:19:58;5.28;;;2.50;;
14169;SDS011;63889;50.596;8.690;2024-01-06T04:22:24;5.30;;;2.85;;
14169;SDS011;63889;50.596;8.690;2024-01-06T04:24:49;7.30;;;2.67;;
14169;SDS011;63889;50.596;8.690;2024-01-06T04:27:15;6.90;;;3.30;;
14169;SDS011;63889;50.596;8.690;2024-01-06T04:29:41;8.77;;;2.97;;
14169;SDS011;63889;50.596;8.690;2024-01-06T04:32:06;4.22;;;2.30;;
14169;SDS011;63889;50.596;8.690;2024-01-06T04:34:32;5.40;;;2.78;;
14169;SDS011;63889;50.596;8.690;2024-01-06T04:36:58;9.85;;;2.38;;
14169;SDS011;63889;50.596;8.690;2024-01-06T04:39:23;6.65;;;2.70;;
14169;SDS011;63889;50.596;8.690;2024-01-06T04:41:49;6.22;;;3.17;;
14169;SDS011;63889;50.596;8.690;2024-01-06T04:44:15;6.03;;;2.60;;
14169;SDS011;63889;50.596;8.690;2024-01-06T04:46:40;10.25;;;3.28;;
14169;SDS011;63889;50.596;8.690;2024-01-06T04:49:06;7.15;;;3.00;;
14169;SDS011;63889;50.596;8.690;2024-01-06T04:51:31;6.60;;;2.40;;
14169;SDS011;63889;50.596;8.690;2024-01-06T04:53:57;5.82;;;2.75;;
14169;SDS011;63889;50.596;8.690;2024-01-06T04:56:23;6.78;;;2.78;;
14169;SDS011;63889;50.596;8.690;2024-01-06T04:58:48;7.70;;;2.85;;
14169;SDS011;63889;50.596;8.690;2024-01-06T05:01:14;7.30;;;2.83;;
14169;SDS011;63889;50.596;8.690;2024-01-06T05:03:39;9.18;;;3.95;;
14169;SDS011;63889;50.596;8.690;2024-01-06T05:06:05;12.80;;;3.28;;
14169;SDS011;63889;50.596;8.690;2024-01-06T05:08:30;5.57;;;2.97;;
14169;SDS011;63889;50.596;8.690;2024-01-06T05:10:56;12.32;;;3.38;;
14169;SDS011;63889;50.596;8.690;2024-01-06T05:13:22;11.70;;;2.90;;
14169;SDS011;63889;50.596;8.690;2024-01-06T05:15:47;6.88;;;2.97;;
14169;SDS011;63889;50.596;8.690;2024-01-06T05:18:13;3.70;;;2.50;;
14169;SDS011;63889;50.596;8.690;2024-01-06T05:20:38;5.50;;;3.15;;
14169;SDS011;63889;50.596;8.690;2024-01-06T05:23:06;9.57;;;2.60;;
14169;SDS011;63889;50.596;8.690;2024-01-06T05:25:31;4.30;;;2.58;;
14169;SDS011;63889;50.596;8.690;2024-01-06T05:27:57;6.72;;;2.65;;
14169;SDS011;63889;50.596;8.690;2024-01-06T05:30:23;8.48;;;3.08;;
14169;SDS011;63889;50.596;8.690;2024-01-06T05:32:48;5.30;;;2.63;;
14169;SDS011;63889;50.596;8.690;2024-01-06T05:35:15;7.60;;;3.05;;
14169;SDS011;63889;50.596;8.690;2024-01-06T05:37:41;15.90;;;3.28;;
14169;SDS011;63889;50.596;8.690;2024-01-06T05:40:07;5.93;;;2.53;;
14169;SDS011;63889;50.596;8.690;2024-01-06T05:42:33;6.30;;;2.97;;
14169;SDS011;63889;50.596;8.690;2024-01-06T05:44:58;7.13;;;3.15;;
14169;SDS011;63889;50.596;8.690;2024-01-06T05:47:24;8.13;;;3.75;;
14169;SDS011;63889;50.596;8.690;2024-01-06T05:49:49;13.10;;;4.28;;
14169;SDS011;63889;50.596;8.690;2024-01-06T05:52:15;15.55;;;4.35;;
14169;SDS011;63889;50.596;8.690;2024-01-06T05:54:41;10.35;;;4.43;;
14169;SDS011;63889;50.596;8.690;2024-01-06T05:57:07;10.52;;;4.35;;
14169;SDS011;63889;50.596;8.690;2024-01-06T05:59:33;12.07;;;3.78;;
14169;SDS011;63889;50.596;8.690;2024-01-06T06:01:58;10.90;;;3.92;;
14169;SDS011;63889;50.596;8.690;2024-01-06T06:04:24;8.77;;;3.63;;
14169;SDS011;63889;50.596;8.690;2024-01-06T06:06:50;8.07;;;3.63;;
14169;SDS011;63889;50.596;8.690;2024-01-06T06:09:16;9.70;;;4.00;;
14169;SDS011;63889;50.596;8.690;2024-01-06T06:11:41;10.98;;;3.30;;
14169;SDS011;63889;50.596;8.690;2024-01-06T06:14:08;8.57;;;3.42;;
14169;SDS011;63889;50.596;8.690;2024-01-06T06:16:34;7.18;;;3.78;;
14169;SDS011;63889;50.596;8.690;2024-01-06T06:18:59;12.30;;;3.83;;
14169;SDS011;63889;50.596;8.690;2024-01-06T06:21:25;5.13;;;3.05;;
14169;SDS011;63889;50.596;8.690;2024-01-06T06:23:50;9.63;;;3.60;;
14169;SDS011;63889;50.596;8.690;2024-01-06T06:26:16;6.65;;;3.85;;
14169;SDS011;63889;50.596;8.690;2024-01-06T06:28:42;7.45;;;3.90;;
14169;SDS011;63889;50.596;8.690;2024-01-06T06:31:07;8.20;;;3.00;;
14169;SDS011;63889;50.596;8.690;2024-01-06T06:33:33;5.85;;;3.15;;
14169;SDS011;63889;50.596;8.690;2024-01-06T06:35:59;6.20;;;2.70;;
14169;SDS011;63889;50.596;8.690;2024-01-06T06:38:27;10.13;;;3.63;;
14169;SDS011;63889;50.596;8.690;2024-01-06T06:40:53;4.93;;;3.03;;
14169;SDS011;63889;50.596;8.690;2024-01-06T06:43:19;8.50;;;3.78;;
14169;SDS011;63889;50.596;8.690;2024-01-06T06:45:44;6.28;;;3.25;;
14169;SDS011;63889;50.596;8.690;2024-01-06T06:48:10;6.30;;;2.95;;
14169;SDS011;63889;50.596;8.690;2024-01-06T06:50:35;6.50;;;3.53;;
14169;SDS011;63889;50.596;8.690;2024-01-06T06:53:01;9.75;;;3.10;;
14169;SDS011;63889;50.596;8.690;2024-01-06T06:55:27;8.52;;;3.50;;
14169;SDS011;63889;50.596;8.690;2024-01-06T06:57:53;8.05;;;3.00;;
14169;SDS011;63889;50.596;8.690;2024-01-06T07:00:19;5.53;;;2.70;;
14169;SDS011;63889;50.596;8.690;2024-01-06T07:02:45;12.45;;;3.05;;
14169;SDS011;63889;50.596;8.690;2024-01-06T07:05:10;4.63;;;2.40;;
14169;SDS011;63889;50.596;8.690;2024-01-06T07:07:36;7.13;;;2.80;;
14169;SDS011;63889;50.596;8.690;2024-01-06T07:10:03;7.43;;;2.97;;
14169;SDS011;63889;50.596;8.690;2024-01-06T07:12:32;7.85;;;3.10;;
14169;SDS011;63889;50.596;8.690;2024-01-06T07:14:58;9.45;;;2.95;;
14169;SDS011;63889;50.596;8.690;2024-01-06T07:17:26;15.23;;;3.10;;
14169;SDS011;63889;50.596;8.690;2024-01-06T07:19:52;6.88;;;3.00;;
14169;SDS011;63889;50.596;8.690;2024-01-06T07:22:18;7.80;;;3.80;;
14169;SDS011;63889;50.596;8.690;2024-01-06T07:24:44;5.15;;;2.38;;
14169;SDS011;63889;50.596;8.690;2024-01-06T07:27:10;4.60;;;2.30;;
14169;SDS011;63889;50.596;8.690;2024-01-06T07:29:35;13.48;;;3.10;;
14169;SDS011;63889;50.596;8.690;2024-01-06T07:32:02;5.05;;;2.38;;
14169;SDS011;63889;50.596;8.690;2024-01-06T07:34:28;3.30;;;2.60;;
14169;SDS011;63889;50.596;8.690;2024-01-06T07:36:53;10.88;;;2.95;;
14169;SDS011;63889;50.596;8.690;2024-01-06T07:39:19;10.45;;;3.00;;
14169;SDS011;63889;50.596;8.690;2024-01-06T07:41:45;6.00;;;2.30;;
14169;SDS011;63889;50.596;8.690;2024-01-06T07:44:13;9.20;;;2.75;;
14169;SDS011;63889;50.596;8.690;2024-01-06T07:46:40;6.40;;;2.95;;
14169;SDS011;63889;50.596;8.690;2024-01-06T07:49:06;5.22;;;2.85;;
14169;SDS011;63889;50.596;8.690;2024-01-06T07:51:32;13.10;;;3.03;;
14169;SDS011;63889;50.596;8.690;2024-01-06T07:53:59;7.05;;;2.35;;
14169;SDS011;63889;50.596;8.690;2024-01-06T07:56:25;7.40;;;3.10;;
14169;SDS011;63889;50.596;8.690;2024-01-06T07:58:51;9.48;;;2.85;;
14169;SDS011;63889;50.596;8.690;2024-01-06T08:01:17;9.13;;;2.97;;
14169;SDS011;63889;50.596;8.690;2024-01-06T08:03:43;8.00;;;2.85;;
14169;SDS011;63889;50.596;8.690;2024-01-06T08:06:09;9.05;;;3.65;;
14169;SDS011;63889;50.596;8.690;2024-01-06T08:08:35;7.38;;;2.92;;
14169;SDS011;63889;50.596;8.690;2024-01-06T08:11:00;11.00;;;2.50;;
14169;SDS011;63889;50.596;8.690;2024-01-06T08:13:26;4.78;;;2.30;;
14169;SDS011;63889;50.596;8.690;2024-01-06T08:15:51;7.00;;;2.10;;
14169;SDS011;63889;50.596;8.690;2024-01-06T08:18:17;9.13;;;2.30;;
14169;SDS011;63889;50.596;8.690;2024-01-06T08:20:43;8.63;;;2.15;;
14169;SDS011;63889;50.596;8.690;2024-01-06T08:23:08;7.05;;;2.50;;
14169;SDS011;63889;50.596;8.690;2024-01-06T08:25:35;8.38;;;2.55;;
14169;SDS011;63889;50.596;8.690;2024-01-06T08:28:01;5.03;;;2.53;;
14169;SDS011;63889;50.596;8.690;2024-01-06T08:30:26;9.38;;;2.83;;
14169;SDS011;63889;50.596;8.690;2024-01-06T08:32:52;6.13;;;2.58;;
14169;SDS011;63889;50.596;8.690;2024-01-06T08:35:17;9.38;;;2.47;;
14169;SDS011;63889;50.596;8.690;2024-01-06T08:37:44;3.45;;;2.08;;
14169;SDS011;63889;50.596;8.690;2024-01-06T08:40:10;10.05;;;2.55;;
14169;SDS011;63889;50.596;8.690;2024-01-06T08:42:36;4.85;;;2.30;;
14169;SDS011;63889;50.596;8.690;2024-01-06T08:45:01;6.78;;;2.30;;
14169;SDS011;63889;50.596;8.690;2024-01-06T08:47:27;6.60;;;2.47;;
14169;SDS011;63889;50.596;8.690;2024-01-06T08:49:53;12.07;;;2.45;;
14169;SDS011;63889;50.596;8.690;2024-01-06T08:52:18;6.75;;;2.75;;
14169;SDS011;63889;50.596;8.690;2024-01-06T08:54:44;4.25;;;2.22;;
14169;SDS011;63889;50.596;8.690;2024-01-06T08:57:09;3.85;;;2.05;;
14169;SDS011;63889;50.596;8.690;2024-01-06T08:59:35;7.18;;;2.58;;
14169;SDS011;63889;50.596;8.690;2024-01-06T09:02:00;7.00;;;2.55;;
14169;SDS011;63889;50.596;8.690;2024-01-06T09:04:26;6.18;;;2.45;;
14169;SDS011;63889;50.596;8.690;2024-01-06T09:06:52;8.88;;;2.70;;
14169;SDS011;63889;50.596;8.690;2024-01-06T09:09:17;7.40;;;2.45;;
14169;SDS011;63889;50.596;8.690;2024-01-06T09:11:43;7.55;;;2.60;;
14169;SDS011;63889;50.596;8.690;2024-01-06T09:14:09;11.52;;;2.65;;
14169;SDS011;63889;50.596;8.690;2024-01-06T09:16:38;7.22;;;2.17;;
14169;SDS011;63889;50.596;8.690;2024-01-06T09:19:03;4.93;;;2.05;;
14169;SDS011;63889;50.596;8.690;2024-01-06T09:21:29;5.53;;;2.63;;
14169;SDS011;63889;50.596;8.690;2024-01-06T09:23:54;8.13;;;2.45;;
14169;SDS011;63889;50.596;8.690;2024-01-06T09:26:20;5.45;;;2.38;;
14169;SDS011;63889;50.596;8.690;2024-01-06T09:28:45;7.10;;;2.60;;
14169;SDS011;63889;50.596;8.690;2024-01-06T09:31:11;7.68;;;2.33;;
14169;SDS011;63889;50.596;8.690;2024-01-06T09:33:36;9.07;;;3.15;;
14169;SDS011;63889;50.596;8.690;2024-01-06T09:36:03;17.08;;;2.45;;
14169;SDS011;63889;50.596;8.690;2024-01-06T09:38:29;8.93;;;2.83;;
14169;SDS011;63889;50.596;8.690;2024-01-06T09:40:55;10.18;;;3.72;;
14169;SDS011;63889;50.596;8.690;2024-01-06T09:43:21;4.38;;;2.03;;
14169;SDS011;63889;50.596;8.690;2024-01-06T09:45:48;4.47;;;1.92;;
14169;SDS011;63889;50.596;8.690;2024-01-06T09:48:39;6.00;;;2.20;;
14169;SDS011;63889;50.596;8.690;2024-01-06T09:51:06;5.97;;;2.42;;
14169;SDS011;63889;50.596;8.690;2024-01-06T09:53:36;9.60;;;2.78;;
14169;SDS011;63889;50.596;8.690;2024-01-06T09:56:13;5.65;;;2.25;;
14169;SDS011;63889;50.596;8.690;2024-01-06T09:58:41;6.03;;;2.40;;
14169;SDS011;63889;50.596;8.690;2024-01-06T10:01:06;9.48;;;2.58;;
14169;SDS011;63889;50.596;8.690;2024-01-06T10:03:33;5.78;;;2.00;;
14169;SDS011;63889;50.596;8.690;2024-01-06T10:06:00;5.97;;;2.53;;
14169;SDS011;63889;50.596;8.690;2024-01-06T10:08:28;7.95;;;2.42;;
14169;SDS011;63889;50.596;8.690;2024-01-06T10:10:54;8.27;;;3.15;;
14169;SDS011;63889;50.596;8.690;2024-01-06T10:13:20;18.50;;;3.35;;
14169;SDS011;63889;50.596;8.690;2024-01-06T10:15:45;5.43;;;2.53;;
14169;SDS011;63889;50.596;8.690;2024-01-06T10:18:11;4.82;;;2.40;;
14169;SDS011;63889;50.596;8.690;2024-01-06T10:20:37;5.32;;;2.10;;
14169;SDS011;63889;50.596;8.690;2024-01-06T10:23:06;9.38;;;3.17;;
14169;SDS011;63889;50.596;8.690;2024-01-06T10:25:32;12.90;;;3.05;;
14169;SDS011;63889;50.596;8.690;2024-01-06T10:27:59;15.15;;;2.53;;
14169;SDS011;63889;50.596;8.690;2024-01-06T10:30:26;4.43;;;2.30;;
14169;SDS011;63889;50.596;8.690;2024-01-06T10:32:52;9.48;;;2.50;;
14169;SDS011;63889;50.596;8.690;2024-01-06T10:35:17;8.43;;;2.72;;
14169;SDS011;63889;50.596;8.690;2024-01-06T10:37:44;10.73;;;3.08;;
14169;SDS011;63889;50.596;8.690;2024-01-06T10:40:11;8.80;;;2.83;;
14169;SDS011;63889;50.596;8.690;2024-01-06T10:42:38;6.38;;;2.90;;
14169;SDS011;63889;50.596;8.690;2024-01-06T10:45:08;5.03;;;2.53;;
14169;SDS011;63889;50.596;8.690;2024-01-06T10:47:39;6.78;;;3.35;;
14169;SDS011;63889;50.596;8.690;2024-01-06T10:50:06;7.72;;;3.75;;
14169;SDS011;63889;50.596;8.690;2024-01-06T10:52:33;12.68;;;4.15;;
14169;SDS011;63889;50.596;8.690;2024-01-06T10:55:00;10.90;;;3.72;;
14169;SDS011;63889;50.596;8.690;2024-01-06T10:57:28;10.60;;;4.63;;
14169;SDS011;63889;50.596;8.690;2024-01-06T10:59:57;6.05;;;2.47;;
14169;SDS011;63889;50.596;8.690;2024-01-06T11:02:23;10.25;;;3.30;;
14169;SDS011;63889;50.596;8.690;2024-01-06T11:04:50;7.93;;;3.83;;
14169;SDS011;63889;50.596;8.690;2024-01-06T11:07:17;8.90;;;2.65;;
14169;SDS011;63889;50.596;8.690;2024-01-06T11:09:49;7.13;;;3.47;;
14169;SDS011;63889;50.596;8.690;2024-01-06T11:12:18;7.80;;;3.05;;
14169;SDS011;63889;50.596;8.690;2024-01-06T11:14:44;6.03;;;3.15;;
14169;SDS011;63889;50.596;8.690;2024-01-06T11:17:11;6.45;;;3.13;;
14169;SDS011;63889;50.596;8.690;2024-01-06T11:24:57;5.97;;;3.10;;
14169;SDS011;63889;50.596;8.690;2024-01-06T11:27:30;8.23;;;3.28;;
14169;SDS011;63889;50.596;8.690;2024-01-06T11:29:56;7.65;;;3.20;;
14169;SDS011;63889;50.596;8.690;2024-01-06T11:32:30;7.13;;;3.03;;
14169;SDS011;63889;50.596;8.690;2024-01-06T11:35:11;5.07;;;3.10;;
14169;SDS011;63889;50.596;8.690;2024-01-06T11:40:15;5.05;;;3.30;;
14169;SDS011;63889;50.596;8.690;2024-01-06T11:42:58;4.45;;;2.85;;
14169;SDS011;63889;50.596;8.690;2024-01-06T11:45:35;7.50;;;3.28;;
14169;SDS011;63889;50.596;8.690;2024-01-06T11:48:02;16.27;;;4.53;;
14169;SDS011;63889;50.596;8.690;2024-01-06T11:50:32;9.18;;;4.30;;
14169;SDS011;63889;50.596;8.690;2024-01-06T11:52:59;9.48;;;4.13;;
14169;SDS011;63889;50.596;8.690;2024-01-06T11:55:26;6.68;;;3.40;;
14169;SDS011;63889;50.596;8.690;2024-01-06T11:57:59;5.93;;;3.33;;
14169;SDS011;63889;50.596;8.690;2024-01-06T12:00:28;9.23;;;3.80;;
14169;SDS011;63889;50.596;8.690;2024-01-06T12:02:58;7.03;;;3.35;;
14169;SDS011;63889;50.596;8.690;2024-01-06T12:05:24;5.18;;;3.83;;
14169;SDS011;63889;50.596;8.690;2024-01-06T12:08:01;7.18;;;3.53;;
14169;SDS011;63889;50.596;8.690;2024-01-06T12:10:32;11.90;;;3.38;;
14169;SDS011;63889;50.596;8.690;2024-01-06T12:12:59;5.65;;;3.25;;
14169;SDS011;63889;50.596;8.690;2024-01-06T12:15:29;5.53;;;3.17;;
14169;SDS011;63889;50.596;8.690;2024-01-06T12:17:55;7.13;;;3.42;;
14169;SDS011;63889;50.596;8.690;2024-01-06T12:20:22;11.85;;;3.78;;
14169;SDS011;63889;50.596;8.690;2024-01-06T12:22:48;7.57;;;3.60;;
14169;SDS011;63889;50.596;8.690;2024-01-06T12:25:16;5.03;;;3.55;;
14169;SDS011;63889;50.596;8.690;2024-01-06T12:27:43;7.05;;;3.33;;
14169;SDS011;63889;50.596;8.690;2024-01-06T12:30:15;6.88;;;3.45;;
14169;SDS011;63889;50.596;8.690;2024-01-06T12:32:45;5.03;;;3.13;;
14169;SDS011;63889;50.596;8.690;2024-01-06T12:35:12;9.48;;;3.53;;
14169;SDS011;63889;50.596;8.690;2024-01-06T12:37:38;6.28;;;3.78;;
14169;SDS011;63889;50.596;8.690;2024-01-06T12:40:04;11.13;;;4.88;;
14169;SDS011;63889;50.596;8.690;2024-01-06T12:42:30;15.68;;;6.32;;
14169;SDS011;63889;50.596;8.690;2024-01-06T12:44:56;13.30;;;4.95;;
14169;SDS011;63889;50.596;8.690;2024-01-06T12:47:21;7.13;;;3.88;;
14169;SDS011;63889;50.596;8.690;2024-01-06T12:49:47;9.07;;;3.58;;
14169;SDS011;63889;50.596;8.690;2024-01-06T12:52:13;7.97;;;4.18;;
14169;SDS011;63889;50.596;8.690;2024-01-06T12:54:39;6.95;;;3.85;;
14169;SDS011;63889;50.596;8.690;2024-01-06T12:57:05;10.55;;;3.67;;
14169;SDS011;63889;50.596;8.690;2024-01-06T12:59:31;8.32;;;4.22;;
14169;SDS011;63889;50.596;8.690;2024-01-06T13:01:57;8.00;;;4.53;;
14169;SDS011;63889;50.596;8.690;2024-01-06T13:04:22;11.85;;;4.50;;
14169;SDS011;63889;50.596;8.690;2024-01-06T13:06:48;9.13;;;4.38;;
14169;SDS011;63889;50.596;8.690;2024-01-06T13:09:14;7.50;;;3.88;;
14169;SDS011;63889;50.596;8.690;2024-01-06T13:11:41;18.20;;;4.30;;
14169;SDS011;63889;50.596;8.690;2024-01-06T13:14:07;12.70;;;4.57;;
14169;SDS011;63889;50.596;8.690;2024-01-06T13:16:33;9.43;;;3.85;;
14169;SDS011;63889;50.596;8.690;2024-01-06T13:18:59;9.45;;;3.65;;
14169;SDS011;63889;50.596;8.690;2024-01-06T13:21:25;6.53;;;4.32;;
14169;SDS011;63889;50.596;8.690;2024-01-06T13:23:53;10.25;;;3.92;;
14169;SDS011;63889;50.596;8.690;2024-01-06T13:26:19;7.32;;;4.65;;
14169;SDS011;63889;50.596;8.690;2024-01-06T13:28:44;11.05;;;4.10;;
14169;SDS011;63889;50.596;8.690;2024-01-06T13:31:11;9.27;;;4.50;;
14169;SDS011;63889;50.596;8.690;2024-01-06T13:33:36;8.30;;;3.70;;
14169;SDS011;63889;50.596;8.690;2024-01-06T13:36:02;12.25;;;4.18;;
14169;SDS011;63889;50.596;8.690;2024-01-06T13:38:29;9.55;;;4.93;;
14169;SDS011;63889;50.596;8.690;2024-01-06T13:40:54;13.27;;;4.65;;
14169;SDS011;63889;50.596;8.690;2024-01-06T13:43:20;10.50;;;4.63;;
14169;SDS011;63889;50.596;8.690;2024-01-06T13:45:45;6.47;;;3.95;;
14169;SDS011;63889;50.596;8.690;2024-01-06T13:48:12;8.25;;;3.53;;
14169;SDS011;63889;50.596;8.690;2024-01-06T13:50:38;7.00;;;4.03;;
14169;SDS011;63889;50.596;8.690;2024-01-06T13:53:04;8.90;;;4.97;;
14169;SDS011;63889;50.596;8.690;2024-01-06T13:55:31;9.07;;;4.30;;
14169;SDS011;63889;50.596;8.690;2024-01-06T13:57:58;6.32;;;3.47;;
14169;SDS011;63889;50.596;8.690;2024-01-06T14:00:23;10.65;;;4.20;;
14169;SDS011;63889;50.596;8.690;2024-01-06T14:02:50;8.45;;;3.83;;
14169;SDS011;63889;50.596;8.690;2024-01-06T14:05:16;9.75;;;3.78;;
14169;SDS011;63889;50.596;8.690;2024-01-06T14:07:44;8.05;;;3.97;;
14169;SDS011;63889;50.596;8.690;2024-01-06T14:10:12;6.40;;;3.58;;
14169;SDS011;63889;50.596;8.690;2024-01-06T14:12:40;7.35;;;3.75;;
14169;SDS011;63889;50.596;8.690;2024-01-06T14:15:06;6.70;;;3.58;;
14169;SDS011;63889;50.596;8.690;2024-01-06T14:17:32;7.10;;;3.88;;
14169;SDS011;63889;50.596;8.690;2024-01-06T14:19:58;6.93;;;3.22;;
14169;SDS011;63889;50.596;8.690;2024-01-06T14:22:23;6.38;;;3.38;;
14169;SDS011;63889;50.596;8.690;2024-01-06T14:24:49;7.82;;;4.40;;
14169;SDS011;63889;50.596;8.690;2024-01-06T14:27:15;6.43;;;3.45;;
14169;SDS011;63889;50.596;8.690;2024-01-06T14:29:40;7.57;;;3.55;;
14169;SDS011;63889;50.596;8.690;2024-01-06T14:32:06;8.68;;;4.47;;
14169;SDS011;63889;50.596;8.690;2024-01-06T14:34:32;7.22;;;3.60;;
14169;SDS011;63889;50.596;8.690;2024-01-06T14:36:57;8.07;;;4.03;;
14169;SDS011;63889;50.596;8.690;2024-01-06T14:39:23;7.20;;;4.10;;
14169;SDS011;63889;50.596;8.690;2024-01-06T14:41:48;11.27;;;4.85;;
14169;SDS011;63889;50.596;8.690;2024-01-06T14:44:15;7.25;;;3.65;;
14169;SDS011;63889;50.596;8.690;2024-01-06T14:46:40;8.05;;;4.55;;
14169;SDS011;63889;50.596;8.690;2024-01-06T14:49:07;10.82;;;4.43;;